createdAt,value
2018-05-25T00:00:46.287Z,91.10
2018-05-25T00:03:15.897Z,91.30
2018-05-25T00:05:44.639Z,91.30
2018-05-25T00:08:14.191Z,91.00
2018-05-25T00:10:42.678Z,90.90
2018-05-25T00:13:11.255Z,90.90
2018-05-25T00:15:39.637Z,90.90
2018-05-25T00:18:09.121Z,91.00
2018-05-25T00:20:38.541Z,91.00
2018-05-25T00:23:07.024Z,91.10
2018-05-25T00:25:35.549Z,91.00
2018-05-25T00:28:05.013Z,91.00
2018-05-25T00:30:33.533Z,91.00
2018-05-25T00:33:03.201Z,90.90
2018-05-25T00:35:32.097Z,90.80
2018-05-25T00:38:01.809Z,90.80
2018-05-25T00:40:30.283Z,90.80
2018-05-25T00:42:58.943Z,90.60
2018-05-25T00:45:27.471Z,90.50
2018-05-25T00:47:56.036Z,89.80
2018-05-25T00:50:24.642Z,88.80
2018-05-25T00:52:52.895Z,88.10
2018-05-25T00:55:33.177Z,89.40
2018-05-25T00:58:01.426Z,89.70
2018-05-25T01:00:30.015Z,89.70
2018-05-25T01:02:58.433Z,89.30
2018-05-25T01:05:26.668Z,89.40
2018-05-25T01:07:54.911Z,89.70
2018-05-25T01:10:23.169Z,90.00
2018-05-25T01:12:57.080Z,90.10
2018-05-25T01:15:31.246Z,90.00
2018-05-25T01:18:05.319Z,89.40
2018-05-25T01:20:39.148Z,89.20
2018-05-25T01:23:13.180Z,89.30
2018-05-25T01:25:47.209Z,89.60
2018-05-25T01:28:20.981Z,89.50
2018-05-25T01:30:54.737Z,89.80
2018-05-25T01:33:29.390Z,90.00
2018-05-25T01:36:03.438Z,90.00
2018-05-25T01:38:37.378Z,90.00
2018-05-25T01:41:11.177Z,89.90
2018-05-25T01:43:45.792Z,90.00
2018-05-25T01:46:19.738Z,90.00
2018-05-25T01:48:53.546Z,90.00
2018-05-25T01:51:27.349Z,89.70
2018-05-25T01:54:01.154Z,89.20
2018-05-25T01:56:35.871Z,89.50
2018-05-25T01:59:10.676Z,89.90
2018-05-25T02:01:44.596Z,89.90
2018-05-25T02:04:18.497Z,89.90
2018-05-25T02:06:52.290Z,90.00
2018-05-25T02:09:26.097Z,90.00
2018-05-25T02:12:00.196Z,90.00
2018-05-25T02:14:34.834Z,90.30
2018-05-25T02:17:09.330Z,90.60
2018-05-25T02:19:43.220Z,90.60
2018-05-25T02:22:17.074Z,90.70
2018-05-25T02:24:51.009Z,90.50
2018-05-25T02:27:25.479Z,90.80
2018-05-25T02:29:59.376Z,90.80
2018-05-25T02:32:33.225Z,90.80
2018-05-25T02:35:06.973Z,90.60
2018-05-25T02:37:41.651Z,90.90
2018-05-25T02:40:15.508Z,90.80
2018-05-25T02:42:49.980Z,90.90
2018-05-25T02:45:23.889Z,90.80
2018-05-25T02:47:58.559Z,91.40
2018-05-25T02:50:33.204Z,91.50
2018-05-25T02:53:07.115Z,91.50
2018-05-25T02:55:40.957Z,91.50
2018-05-25T02:58:14.807Z,91.40
2018-05-25T03:00:48.837Z,91.50
2018-05-25T03:03:23.484Z,91.50
2018-05-25T03:05:58.255Z,91.50
2018-05-25T03:08:33.062Z,91.70
2018-05-25T03:11:06.833Z,91.70
2018-05-25T03:13:41.597Z,92.00
2018-05-25T03:16:15.607Z,91.90
2018-05-25T03:18:49.569Z,91.80
2018-05-25T03:21:23.344Z,91.80
2018-05-25T03:23:58.115Z,91.90
2018-05-25T03:26:31.961Z,91.90
2018-05-25T03:29:06.079Z,91.90
2018-05-25T03:31:40.045Z,91.90
2018-05-25T03:34:14.030Z,91.80
2018-05-25T03:36:48.104Z,91.90
2018-05-25T03:39:21.998Z,92.00
2018-05-25T03:41:55.954Z,92.00
2018-05-25T03:44:30.568Z,92.10
2018-05-25T03:47:04.563Z,92.10
2018-05-25T03:49:39.222Z,92.10
2018-05-25T03:52:13.408Z,92.00
2018-05-25T03:54:47.353Z,92.00
2018-05-25T03:57:21.320Z,92.10
2018-05-25T04:00:07.181Z,92.20
2018-05-25T04:02:41.734Z,92.50
2018-05-25T04:05:15.643Z,92.40
2018-05-25T04:07:49.422Z,92.50
2018-05-25T04:10:23.162Z,92.50
2018-05-25T04:12:57.822Z,92.30
2018-05-25T04:15:31.765Z,92.30
2018-05-25T04:18:06.582Z,92.40
2018-05-25T04:20:41.348Z,92.50
2018-05-25T04:23:15.345Z,92.50
2018-05-25T04:25:49.335Z,92.50
2018-05-25T04:28:23.353Z,92.70
2018-05-25T04:30:58.082Z,92.80
2018-05-25T04:33:31.916Z,92.80
2018-05-25T04:36:05.995Z,92.80
2018-05-25T04:38:40.037Z,92.80
2018-05-25T04:41:14.729Z,93.00
2018-05-25T04:43:48.635Z,93.00
2018-05-25T04:46:22.384Z,93.00
2018-05-25T04:48:57.974Z,93.10
2018-05-25T04:51:31.985Z,93.10
2018-05-25T04:54:05.901Z,93.10
2018-05-25T04:56:40.530Z,93.10
2018-05-25T04:59:14.246Z,93.10
2018-05-25T05:01:48.067Z,93.10
2018-05-25T05:04:22.098Z,93.10
2018-05-25T05:06:55.904Z,93.00
2018-05-25T05:09:29.824Z,92.90
2018-05-25T05:12:03.647Z,92.80
2018-05-25T05:14:37.381Z,92.70
2018-05-25T05:17:11.222Z,92.80
2018-05-25T05:19:45.905Z,92.80
2018-05-25T05:22:19.573Z,92.80
2018-05-25T05:24:53.574Z,92.70
2018-05-25T05:27:27.329Z,92.40
2018-05-25T05:30:01.224Z,92.30
2018-05-25T05:32:35.196Z,91.90
2018-05-25T05:35:09.033Z,92.00
2018-05-25T05:37:42.911Z,92.00
2018-05-25T05:40:17.350Z,91.90
2018-05-25T05:42:51.188Z,91.80
2018-05-25T05:45:25.017Z,91.80
2018-05-25T05:47:58.846Z,91.70
2018-05-25T05:50:32.713Z,91.50
2018-05-25T05:53:06.621Z,91.10
2018-05-25T05:55:40.476Z,91.00
2018-05-25T05:58:14.349Z,91.20
2018-05-25T06:00:48.608Z,90.50
2018-05-25T06:03:23.173Z,89.40
2018-05-25T06:05:57.117Z,89.40
2018-05-25T06:08:31.149Z,88.10
2018-05-25T06:11:05.081Z,87.50
2018-05-25T06:13:38.838Z,86.70
2018-05-25T06:16:13.490Z,85.50
2018-05-25T06:18:47.191Z,85.40
2018-05-25T06:21:20.975Z,85.20
2018-05-25T06:23:54.718Z,84.30
2018-05-25T06:26:29.403Z,81.70
2018-05-25T06:29:03.223Z,81.70
2018-05-25T06:31:37.071Z,83.00
2018-05-25T06:34:11.508Z,82.20
2018-05-25T06:36:45.380Z,82.20
2018-05-25T06:39:19.962Z,81.40
2018-05-25T06:41:53.878Z,81.40
2018-05-25T06:44:27.764Z,80.30
2018-05-25T06:47:01.689Z,78.60
2018-05-25T06:49:35.325Z,79.40
2018-05-25T06:52:09.942Z,74.80
2018-05-25T06:54:43.704Z,74.90
2018-05-25T06:57:17.641Z,74.30
2018-05-25T06:59:51.484Z,74.00
2018-05-25T07:02:26.029Z,73.20
2018-05-25T07:05:00.077Z,73.20
2018-05-25T07:07:33.751Z,71.40
2018-05-25T07:10:07.975Z,72.40
2018-05-25T07:12:41.762Z,72.90
2018-05-25T07:15:16.085Z,69.70
2018-05-25T07:17:49.889Z,69.90
2018-05-25T07:20:23.670Z,69.70
2018-05-25T07:22:57.405Z,68.20
2018-05-25T07:25:31.241Z,68.90
2018-05-25T07:28:05.106Z,68.30
2018-05-25T07:30:39.185Z,67.60
2018-05-25T07:33:12.905Z,67.10
2018-05-25T07:35:46.731Z,65.30
2018-05-25T07:38:20.697Z,65.80
2018-05-25T07:40:55.549Z,63.40
2018-05-25T07:43:29.487Z,63.30
2018-05-25T07:45:58.531Z,61.90
2018-05-25T07:48:26.773Z,61.90
2018-05-25T07:50:54.977Z,62.30
2018-05-25T07:53:23.369Z,62.50
2018-05-25T07:55:51.656Z,61.80
2018-05-25T07:58:19.840Z,59.60
2018-05-25T08:00:48.825Z,60.50
2018-05-25T08:03:17.325Z,60.40
2018-05-25T08:05:45.534Z,59.70
2018-05-25T08:08:13.799Z,57.30
2018-05-25T08:10:43.052Z,57.00
2018-05-25T08:13:11.225Z,58.20
2018-05-25T08:15:40.209Z,55.20
2018-05-25T08:18:08.404Z,55.20
2018-05-25T08:20:37.478Z,52.50
2018-05-25T08:23:05.741Z,52.60
2018-05-25T08:25:33.932Z,52.10
2018-05-25T08:28:03.002Z,51.30
2018-05-25T08:30:31.208Z,51.30
2018-05-25T08:33:00.196Z,47.60
2018-05-25T08:35:29.171Z,48.20
2018-05-25T08:37:57.484Z,48.20
2018-05-25T08:40:26.484Z,46.70
2018-05-25T08:42:54.729Z,46.60
2018-05-25T08:45:23.847Z,47.70
2018-05-25T08:47:52.080Z,47.70
2018-05-25T08:50:20.291Z,48.10
2018-05-25T08:52:48.705Z,46.60
2018-05-25T08:55:16.910Z,45.30
2018-05-25T08:57:45.129Z,44.40
2018-05-25T09:00:13.350Z,45.20
2018-05-25T09:02:41.624Z,44.80
2018-05-25T09:05:10.150Z,43.30
2018-05-25T09:07:38.340Z,44.80
2018-05-25T09:10:06.646Z,44.30
2018-05-25T09:12:35.006Z,44.00
2018-05-25T09:15:03.265Z,43.30
2018-05-25T09:17:31.506Z,43.40
2018-05-25T09:20:00.440Z,43.10
2018-05-25T09:22:29.182Z,43.10
2018-05-25T09:24:58.182Z,42.80
2018-05-25T09:27:27.170Z,42.70
2018-05-25T09:29:56.307Z,42.00
2018-05-25T09:32:24.506Z,41.90
2018-05-25T09:34:52.770Z,41.70
2018-05-25T09:37:21.008Z,40.40
2018-05-25T09:39:49.196Z,40.00
2018-05-25T09:42:17.465Z,40.00
2018-05-25T09:44:45.689Z,39.60
2018-05-25T09:47:14.722Z,41.60
2018-05-25T09:49:42.940Z,41.60
2018-05-25T09:52:11.245Z,40.00
2018-05-25T09:54:39.501Z,38.50
2018-05-25T09:57:08.471Z,35.70
2018-05-25T09:59:36.706Z,35.70
2018-05-25T10:02:04.926Z,36.40
2018-05-25T10:04:33.173Z,34.70
2018-05-25T10:07:02.059Z,33.10
2018-05-25T10:09:30.263Z,35.40
2018-05-25T10:11:58.446Z,35.50
2018-05-25T10:14:27.484Z,33.40
2018-05-25T10:16:55.721Z,33.40
2018-05-25T10:19:24.001Z,36.80
2018-05-25T10:21:52.956Z,36.80
2018-05-25T10:24:21.175Z,36.90
2018-05-25T10:26:50.117Z,41.40
2018-05-25T10:29:18.317Z,41.40
2018-05-25T10:31:46.501Z,39.90
2018-05-25T10:34:15.477Z,37.20
2018-05-25T10:36:43.694Z,37.20
2018-05-25T10:39:12.017Z,38.70
2018-05-25T10:41:40.667Z,39.20
2018-05-25T10:44:08.869Z,38.30
2018-05-25T10:46:37.072Z,37.70
2018-05-25T10:49:05.247Z,41.30
2018-05-25T10:51:34.234Z,44.60
2018-05-25T10:54:02.441Z,44.60
2018-05-25T10:56:30.629Z,44.60
2018-05-25T10:58:59.203Z,42.90
2018-05-25T11:01:27.383Z,43.50
2018-05-25T11:03:55.574Z,46.40
2018-05-25T11:06:23.810Z,49.20
2018-05-25T11:08:52.741Z,45.80
2018-05-25T11:11:20.951Z,45.80
2018-05-25T11:13:49.128Z,45.40
2018-05-25T11:16:18.077Z,48.80
2018-05-25T11:18:46.274Z,48.80
2018-05-25T11:21:15.255Z,52.50
2018-05-25T11:23:44.308Z,52.00
2018-05-25T11:26:12.502Z,52.00
2018-05-25T11:28:40.801Z,49.70
2018-05-25T11:31:09.054Z,50.80
2018-05-25T11:33:37.234Z,49.70
2018-05-25T11:36:05.530Z,50.30
2018-05-25T11:38:33.735Z,52.60
2018-05-25T11:41:01.944Z,52.50
2018-05-25T11:43:30.153Z,50.40
2018-05-25T11:45:59.106Z,48.50
2018-05-25T11:48:27.308Z,48.50
2018-05-25T11:50:55.522Z,47.70
2018-05-25T11:53:23.749Z,48.60
2018-05-25T11:55:51.970Z,49.50
2018-05-25T11:58:20.213Z,52.10
2018-05-25T12:00:48.443Z,48.40
2018-05-25T12:03:16.651Z,47.40
2018-05-25T12:05:45.649Z,47.90
2018-05-25T12:08:14.657Z,48.10
2018-05-25T12:10:42.923Z,48.10
2018-05-25T12:13:12.044Z,49.20
2018-05-25T12:15:41.012Z,51.70
2018-05-25T12:18:10.024Z,48.70
2018-05-25T12:20:39.073Z,46.80
2018-05-25T12:23:07.304Z,46.80
2018-05-25T12:25:35.534Z,45.70
2018-05-25T12:28:04.483Z,46.40
2018-05-25T12:30:32.673Z,46.30
2018-05-25T12:33:01.553Z,46.70
2018-05-25T12:35:29.713Z,46.80
2018-05-25T12:37:57.957Z,45.70
2018-05-25T12:40:26.921Z,41.70
2018-05-25T12:42:55.149Z,41.70
2018-05-25T12:45:23.357Z,42.20
2018-05-25T12:47:51.610Z,41.80
2018-05-25T12:50:20.603Z,40.00
2018-05-25T12:52:48.798Z,39.90
2018-05-25T12:55:17.027Z,38.00
2018-05-25T12:57:46.265Z,38.40
2018-05-25T13:00:15.060Z,37.80
2018-05-25T13:02:43.277Z,36.00
2018-05-25T13:05:11.520Z,38.80
2018-05-25T13:07:40.568Z,41.50
2018-05-25T13:10:08.829Z,41.50
2018-05-25T13:12:37.006Z,42.50
2018-05-25T13:15:05.202Z,40.70
2018-05-25T13:17:34.329Z,39.70
2018-05-25T13:20:03.394Z,39.30
2018-05-25T13:22:31.667Z,39.30
2018-05-25T13:24:59.903Z,39.60
2018-05-25T13:27:28.159Z,40.30
2018-05-25T13:29:57.165Z,39.80
2018-05-25T13:32:25.480Z,39.80
2018-05-25T13:34:53.733Z,40.80
2018-05-25T13:37:22.055Z,40.70
2018-05-25T13:39:50.312Z,40.50
2018-05-25T13:42:18.712Z,40.60
2018-05-25T13:44:46.893Z,43.60
2018-05-25T13:47:15.253Z,42.90
2018-05-25T13:49:43.520Z,41.90
2018-05-25T13:52:11.702Z,41.90
2018-05-25T13:54:39.914Z,41.50
2018-05-25T13:57:08.139Z,41.20
2018-05-25T13:59:36.351Z,40.80
2018-05-25T14:02:05.301Z,42.50
2018-05-25T14:04:33.508Z,42.50
2018-05-25T14:07:02.464Z,44.80
2018-05-25T14:09:30.726Z,44.80
2018-05-25T14:11:58.927Z,43.50
2018-05-25T14:14:27.149Z,42.90
2018-05-25T14:16:55.375Z,43.20
2018-05-25T14:19:23.609Z,45.20
2018-05-25T14:21:51.837Z,45.70
2018-05-25T14:24:20.797Z,45.60
2018-05-25T14:26:49.071Z,45.60
2018-05-25T14:29:17.392Z,46.60
2018-05-25T14:31:45.635Z,46.70
2018-05-25T14:34:13.936Z,47.70
2018-05-25T14:36:49.312Z,48.70
2018-05-25T14:39:18.620Z,48.60
2018-05-25T14:41:47.106Z,49.50
2018-05-25T14:44:15.328Z,48.90
2018-05-25T14:46:44.312Z,49.80
2018-05-25T14:49:13.331Z,50.40
2018-05-25T14:51:41.556Z,50.40
2018-05-25T14:54:09.738Z,51.80
2018-05-25T14:56:38.780Z,50.60
2018-05-25T14:59:07.028Z,50.60
2018-05-25T15:01:35.174Z,50.40
2018-05-25T15:04:03.458Z,50.70
2018-05-25T15:06:32.491Z,51.30
2018-05-25T15:09:00.735Z,50.70
2018-05-25T15:11:30.379Z,52.20
2018-05-25T15:13:58.622Z,52.30
2018-05-25T15:16:27.601Z,52.40
2018-05-25T15:18:55.890Z,52.90
2018-05-25T15:21:24.202Z,52.40
2018-05-25T15:23:52.430Z,52.20
2018-05-25T15:26:21.469Z,53.50
2018-05-25T15:28:49.761Z,53.60
2018-05-25T15:31:18.109Z,54.10
2018-05-25T15:33:46.936Z,54.60
2018-05-25T15:36:15.185Z,55.10
2018-05-25T15:38:43.483Z,54.10
2018-05-25T15:41:11.715Z,55.10
2018-05-25T15:43:40.152Z,55.10
2018-05-25T15:46:08.665Z,55.70
2018-05-25T15:48:40.961Z,56.70
2018-05-25T15:51:09.604Z,55.80
2018-05-25T15:53:38.822Z,55.40
2018-05-25T15:56:07.199Z,55.40
2018-05-25T15:58:36.398Z,56.40
2018-05-25T16:01:04.673Z,56.40
2018-05-25T16:03:32.980Z,57.60
2018-05-25T16:06:01.841Z,57.60
2018-05-25T16:08:30.154Z,57.10
2018-05-25T16:10:58.532Z,56.90
2018-05-25T16:13:26.818Z,57.60
2018-05-25T16:15:55.127Z,57.20
2018-05-25T16:18:24.180Z,57.60
2018-05-25T16:20:52.447Z,57.50
2018-05-25T16:23:20.870Z,58.10
2018-05-25T16:25:49.421Z,57.70
2018-05-25T16:28:17.779Z,57.90
2018-05-25T16:30:46.037Z,59.20
2018-05-25T16:33:14.463Z,60.10
2018-05-25T16:35:42.743Z,59.00
2018-05-25T16:38:10.976Z,59.90
2018-05-25T16:40:39.353Z,60.80
2018-05-25T16:43:07.666Z,61.20
2018-05-25T16:45:36.112Z,63.00
2018-05-25T16:48:05.003Z,63.70
2018-05-25T16:50:33.264Z,63.70
2018-05-25T16:53:01.661Z,64.00
2018-05-25T16:55:29.900Z,63.50
2018-05-25T16:57:58.081Z,60.60
2018-05-25T17:00:26.363Z,60.90
2018-05-25T17:02:54.699Z,60.60
2018-05-25T17:05:23.760Z,62.00
2018-05-25T17:07:52.157Z,61.90
2018-05-25T17:10:21.299Z,63.50
2018-05-25T17:12:49.937Z,63.60
2018-05-25T17:15:18.230Z,63.80
2018-05-25T17:17:46.577Z,64.50
2018-05-25T17:20:15.062Z,64.70
2018-05-25T17:22:43.642Z,65.10
2018-05-25T17:25:12.460Z,65.40
2018-05-25T17:27:41.616Z,64.90
2018-05-25T17:30:10.202Z,64.80
2018-05-25T17:32:40.330Z,65.50
2018-05-25T17:35:09.632Z,65.90
2018-05-25T17:37:38.271Z,65.80
2018-05-25T17:40:06.919Z,66.50
2018-05-25T17:42:37.519Z,67.60
2018-05-25T17:45:06.203Z,67.70
2018-05-25T17:47:34.695Z,67.70
2018-05-25T17:50:04.278Z,66.70
2018-05-25T17:52:33.201Z,66.60
2018-05-25T17:55:02.878Z,66.60
2018-05-25T17:57:31.373Z,66.60
2018-05-25T18:00:00.217Z,67.10
2018-05-25T18:02:29.688Z,67.30
2018-05-25T18:04:59.811Z,67.10
2018-05-25T18:07:29.309Z,67.90
2018-05-25T18:09:58.710Z,67.80
2018-05-25T18:12:28.118Z,68.00
2018-05-25T18:14:56.700Z,67.90
2018-05-25T18:17:25.514Z,68.70
2018-05-25T18:19:54.103Z,68.80
2018-05-25T18:22:23.682Z,69.60
2018-05-25T18:24:53.086Z,69.40
2018-05-25T18:27:22.498Z,69.50
2018-05-25T18:29:51.056Z,69.40
2018-05-25T18:32:20.398Z,66.40
2018-05-25T18:34:49.011Z,65.80
2018-05-25T18:37:17.439Z,66.90
2018-05-25T18:39:46.062Z,67.90
2018-05-25T18:42:14.605Z,67.70
2018-05-25T18:44:42.994Z,68.50
2018-05-25T18:47:12.033Z,69.10
2018-05-25T18:49:41.372Z,69.20
2018-05-25T18:52:09.966Z,69.20
2018-05-25T18:54:38.439Z,69.60
2018-05-25T18:57:06.984Z,69.90
2018-05-25T19:02:10.240Z,70.40
2018-05-25T19:04:39.554Z,69.90
2018-05-25T19:07:08.829Z,69.60
2018-05-25T19:09:37.483Z,69.60
2018-05-25T19:12:06.728Z,69.50
2018-05-25T19:14:35.569Z,69.40
2018-05-25T19:17:05.031Z,69.50
2018-05-25T19:19:34.268Z,70.50
2018-05-25T19:22:03.724Z,71.00
2018-05-25T19:24:37.770Z,71.00
2018-05-25T19:27:12.566Z,70.80
2018-05-25T19:29:47.605Z,70.90
2018-05-25T19:32:21.709Z,71.00
2018-05-25T19:34:55.622Z,71.80
2018-05-25T19:37:29.614Z,71.30
2018-05-25T19:40:04.195Z,72.90
2018-05-25T19:42:38.024Z,72.80
2018-05-25T19:45:11.831Z,73.20
2018-05-25T19:47:45.668Z,73.30
2018-05-25T19:50:20.836Z,73.90
2018-05-25T19:52:54.959Z,74.30
2018-05-25T19:55:29.610Z,74.60
2018-05-25T19:58:03.469Z,74.60
2018-05-25T20:00:38.213Z,75.10
2018-05-25T20:03:12.820Z,74.70
2018-05-25T20:05:46.797Z,74.70
2018-05-25T20:08:20.685Z,74.80
2018-05-25T20:13:33.299Z,75.10
2018-05-25T20:16:07.044Z,76.00
2018-05-25T20:18:41.287Z,75.50
2018-05-25T20:21:17.141Z,74.30
2018-05-25T20:23:51.095Z,74.30
2018-05-25T20:26:25.369Z,74.30
2018-05-25T20:28:59.448Z,73.80
2018-05-25T20:31:34.007Z,73.90
2018-05-25T20:34:10.276Z,74.50
2018-05-25T20:36:45.605Z,74.40
2018-05-25T20:39:20.748Z,75.00
2018-05-25T20:41:55.684Z,75.80
2018-05-25T20:44:30.412Z,75.80
2018-05-25T20:47:04.638Z,75.70
2018-05-25T20:49:38.636Z,75.40
2018-05-25T20:52:13.978Z,76.80
2018-05-25T20:54:49.219Z,77.00
2018-05-25T20:57:24.151Z,76.90
2018-05-25T20:59:59.390Z,76.40
2018-05-25T21:02:33.722Z,76.30
2018-05-25T21:05:08.725Z,76.30
2018-05-25T21:07:43.546Z,76.70
2018-05-25T21:10:17.658Z,76.70
2018-05-25T21:12:52.725Z,77.10
2018-05-25T21:15:27.320Z,77.00
2018-05-25T21:18:02.559Z,77.80
2018-05-25T21:20:36.976Z,77.90
2018-05-25T21:23:12.461Z,77.60
2018-05-25T21:25:47.157Z,77.60
2018-05-25T21:28:21.500Z,77.60
2018-05-25T21:30:56.840Z,77.30
2018-05-25T21:33:32.800Z,77.30
2018-05-25T21:36:06.969Z,77.30
2018-05-25T21:38:41.311Z,77.50
2018-05-25T21:41:16.166Z,78.00
2018-05-25T21:43:50.329Z,77.80
2018-05-25T21:46:24.903Z,78.20
2018-05-25T21:48:59.939Z,77.90
2018-05-25T21:51:34.564Z,77.70
2018-05-25T21:54:08.779Z,78.10
2018-05-25T21:56:42.793Z,77.70
2018-05-25T21:59:16.941Z,78.40
2018-05-25T22:01:51.508Z,79.60
2018-05-25T22:04:25.853Z,79.40
2018-05-25T22:07:00.373Z,80.40
2018-05-25T22:09:35.206Z,82.20
2018-05-25T22:12:09.729Z,82.00
2018-05-25T22:14:44.659Z,81.00
2018-05-25T22:17:18.582Z,80.90
2018-05-25T22:19:52.457Z,80.20
2018-05-25T22:22:26.476Z,80.20
2018-05-25T22:25:00.573Z,80.10
2018-05-25T22:27:34.714Z,80.60
2018-05-25T22:30:08.588Z,80.00
2018-05-25T22:32:43.317Z,80.30
2018-05-25T22:35:17.362Z,80.20
2018-05-25T22:37:52.223Z,80.50
2018-05-25T22:40:26.106Z,80.50
2018-05-25T22:43:12.094Z,80.30
2018-05-25T22:45:58.060Z,80.60
2018-05-25T22:48:44.062Z,80.30
2018-05-25T22:51:29.967Z,80.20
2018-05-25T22:54:09.260Z,79.90
2018-05-25T22:56:43.217Z,79.80
2018-05-25T22:59:17.186Z,82.20
2018-05-25T23:01:51.335Z,82.10
2018-05-25T23:04:26.182Z,81.20
2018-05-25T23:07:00.089Z,80.80
2018-05-25T23:09:33.909Z,80.90
2018-05-25T23:12:07.817Z,80.20
2018-05-25T23:14:42.475Z,80.20
2018-05-25T23:17:17.347Z,80.00
2018-05-25T23:19:51.409Z,80.00
2018-05-25T23:22:25.577Z,80.40
2018-05-25T23:24:59.522Z,80.60
2018-05-25T23:27:33.272Z,80.90
2018-05-25T23:30:08.041Z,80.90
2018-05-25T23:32:43.270Z,81.00
2018-05-25T23:35:17.601Z,81.00
2018-05-25T23:37:51.588Z,81.30
2018-05-25T23:40:26.385Z,81.70
2018-05-25T23:43:00.323Z,81.70
2018-05-25T23:45:34.724Z,82.10
2018-05-25T23:48:08.635Z,82.60
2018-05-25T23:50:42.569Z,82.80
2018-05-25T23:53:16.650Z,83.20
2018-05-25T23:55:51.441Z,83.10
2018-05-25T23:58:26.161Z,83.10
